Time;durP1;ratioP1;P1;durP2;ratioP2;P2;SDS_P1;SDS_P2;PMS_P1;PMS_P2;Temp;Humidity;BMP_temperature;BMP_pressure;BME280_temperature;BME280_humidity;BME280_pressure;Samples;Min_cycle;Max_cycle;Signal;HPM_P1;HPM_P2
2022/08/05 00:02:07;;;;;;;5.47;3.00;;;21.50;99.90;;;;;;5092933;28;20272;-44
2022/08/05 00:04:33;;;;;;;3.63;3.03;;;21.50;99.90;;;;;;5092956;28;20191;-45
2022/08/05 00:06:59;;;;;;;3.67;3.13;;;21.50;99.90;;;;;;5092341;28;20185;-44
2022/08/05 00:09:25;;;;;;;4.53;2.97;;;21.40;99.90;;;;;;5093040;28;20551;-45
2022/08/05 00:11:50;;;;;;;4.70;3.30;;;21.50;99.90;;;;;;5092752;28;20226;-46
2022/08/05 00:14:17;;;;;;;12.03;3.70;;;21.50;99.90;;;;;;5092750;28;20253;-48
2022/08/05 00:16:43;;;;;;;3.90;2.90;;;21.50;99.90;;;;;;5092144;28;20271;-45
2022/08/05 00:19:09;;;;;;;6.60;3.73;;;21.50;99.90;;;;;;5091828;28;20419;-46
2022/08/05 00:21:35;;;;;;;3.50;3.20;;;21.50;99.90;;;;;;5092494;28;20592;-45
2022/08/05 00:24:00;;;;;;;4.57;3.10;;;21.50;99.90;;;;;;5091518;28;20189;-44
2022/08/05 00:26:26;;;;;;;4.30;3.53;;;21.40;99.90;;;;;;5092460;28;20192;-47
2022/08/05 00:28:52;;;;;;;5.20;3.40;;;21.30;99.90;;;;;;5091985;28;20180;-46
2022/08/05 00:31:18;;;;;;;3.90;3.43;;;21.20;99.90;;;;;;5092289;28;20240;-47
2022/08/05 00:33:43;;;;;;;5.20;3.60;;;21.20;99.90;;;;;;5092588;28;20915;-44
2022/08/05 00:36:09;;;;;;;5.70;3.87;;;21.00;99.90;;;;;;5092466;28;20185;-45
2022/08/05 00:38:35;;;;;;;4.33;3.37;;;21.00;99.90;;;;;;5091604;28;20527;-43
2022/08/05 00:41:01;;;;;;;4.60;3.37;;;21.00;99.90;;;;;;5092340;28;20184;-44
2022/08/05 00:43:27;;;;;;;4.40;3.40;;;21.00;99.90;;;;;;5092168;28;20176;-46
2022/08/05 00:45:54;;;;;;;3.63;3.30;;;21.00;99.90;;;;;;5092099;28;20188;-44
2022/08/05 00:48:21;;;;;;;4.47;3.50;;;21.10;99.90;;;;;;5090306;28;20425;-45
2022/08/05 00:50:49;;;;;;;7.30;3.30;;;21.10;99.90;;;;;;5092320;28;20454;-44
2022/08/05 00:53:17;;;;;;;4.10;3.63;;;21.10;99.90;;;;;;5091886;28;20426;-45
2022/08/05 00:55:43;;;;;;;3.90;2.93;;;21.10;99.90;;;;;;5092114;28;20414;-44
2022/08/05 00:58:10;;;;;;;3.40;3.10;;;21.00;99.90;;;;;;5091019;28;20426;-45
2022/08/05 01:00:35;;;;;;;5.00;3.53;;;20.90;99.90;;;;;;5091930;28;20423;-44
2022/08/05 01:03:01;;;;;;;3.80;2.97;;;20.80;99.90;;;;;;5092064;28;20429;-46
2022/08/05 01:05:27;;;;;;;3.03;2.80;;;20.80;99.90;;;;;;5091687;28;20748;-47
2022/08/05 01:07:53;;;;;;;5.03;3.40;;;20.70;99.90;;;;;;5091147;28;20246;-44
2022/08/05 01:10:26;;;;;;;5.37;3.87;;;20.60;99.90;;;;;;5091705;28;20232;-46
2022/08/05 01:12:57;;;;;;;4.90;3.90;;;20.50;99.90;;;;;;5091479;28;20437;-44
2022/08/05 01:15:31;;;;;;;4.83;3.63;;;20.40;99.90;;;;;;5091791;28;21010;-43
2022/08/05 01:18:05;;;;;;;4.53;3.93;;;20.40;99.90;;;;;;5091154;28;20535;-44
2022/08/05 01:20:56;;;;;;;4.53;3.73;;;20.40;99.90;;;;;;5090534;28;20993;-45
2022/08/05 01:23:40;;;;;;;9.37;4.20;;;20.30;99.90;;;;;;5091498;28;20501;-45
2022/08/05 01:26:11;;;;;;;4.50;3.30;;;20.30;99.90;;;;;;5091511;28;20422;-43
2022/08/05 01:28:50;;;;;;;4.93;3.50;;;20.30;99.90;;;;;;5090742;28;20448;-44
2022/08/05 01:31:22;;;;;;;4.80;4.30;;;20.20;99.90;;;;;;5091133;28;20450;-47
2022/08/05 01:33:55;;;;;;;3.90;3.50;;;20.30;99.90;;;;;;5091311;28;20406;-45
2022/08/05 01:36:25;;;;;;;5.20;3.60;;;20.30;99.90;;;;;;5091390;28;20818;-44
2022/08/05 01:38:54;;;;;;;5.73;3.93;;;20.30;99.90;;;;;;5090700;28;20921;-46
2022/08/05 01:41:22;;;;;;;7.07;4.10;;;20.40;99.90;;;;;;5091100;28;20844;-45
2022/08/05 01:43:50;;;;;;;3.93;3.63;;;20.50;99.90;;;;;;5090943;28;20579;-44
2022/08/05 01:46:17;;;;;;;5.83;3.70;;;20.50;99.90;;;;;;5091025;28;20421;-46
2022/08/05 01:48:45;;;;;;;4.77;3.87;;;20.60;99.90;;;;;;5088901;28;20921;-47
2022/08/05 01:51:13;;;;;;;4.23;3.83;;;20.70;99.90;;;;;;5090939;28;20518;-46
2022/08/05 01:53:40;;;;;;;5.10;3.63;;;20.80;99.90;;;;;;5090872;28;20925;-45
2022/08/05 01:56:08;;;;;;;4.57;4.00;;;20.80;99.90;;;;;;5089639;28;21066;-44
2022/08/05 01:58:36;;;;;;;4.90;3.00;;;20.70;99.90;;;;;;5089791;28;20411;-45
2022/08/05 02:01:05;;;;;;;5.40;3.90;;;20.70;99.90;;;;;;5091015;28;20430;-44
2022/08/05 02:03:38;;;;;;;3.97;3.57;;;20.60;99.90;;;;;;5090757;28;20427;-46
2022/08/05 02:06:06;;;;;;;4.10;3.10;;;20.60;99.90;;;;;;5090191;28;21014;-44
2022/08/05 02:08:33;;;;;;;4.60;3.10;;;20.60;99.90;;;;;;5089868;28;20453;-46
2022/08/05 02:11:07;;;;;;;3.90;3.60;;;20.50;99.90;;;;;;5090483;28;20450;-45
2022/08/05 02:14:09;;;;;;;6.93;3.70;;;20.50;99.90;;;;;;5090655;28;20414;-45
2022/08/05 02:16:49;;;;;;;4.17;3.77;;;20.50;99.90;;;;;;5083067;28;20426;-44
2022/08/05 02:19:21;;;;;;;4.83;3.53;;;20.50;99.90;;;;;;5089504;28;20445;-44
2022/08/05 02:22:12;;;;;;;6.30;3.37;;;20.60;99.90;;;;;;5090467;28;20418;-43
2022/08/05 02:24:42;;;;;;;4.30;3.50;;;20.60;99.90;;;;;;5090264;28;20433;-46
2022/08/05 02:27:09;;;;;;;5.50;3.53;;;20.60;99.90;;;;;;5089894;28;20730;-44
2022/08/05 02:29:36;;;;;;;3.80;3.50;;;20.70;99.90;;;;;;5090237;28;20451;-47
2022/08/05 02:32:05;;;;;;;5.03;3.30;;;20.70;99.90;;;;;;5089966;28;20457;-46
2022/08/05 02:34:33;;;;;;;3.40;3.10;;;20.70;99.90;;;;;;5090305;28;20415;-46
2022/08/05 02:37:03;;;;;;;5.70;3.40;;;20.70;99.90;;;;;;5089614;28;20448;-45
2022/08/05 02:39:34;;;;;;;4.70;4.03;;;20.70;99.90;;;;;;5090234;28;20422;-46
2022/08/05 02:42:01;;;;;;;3.90;3.50;;;20.70;99.90;;;;;;5090242;28;20419;-45
2022/08/05 02:44:29;;;;;;;5.40;3.43;;;20.70;99.90;;;;;;5089734;28;21074;-44
2022/08/05 02:46:57;;;;;;;5.80;3.83;;;20.70;99.90;;;;;;5089579;28;20426;-46
2022/08/05 02:49:24;;;;;;;4.70;4.30;;;20.70;99.90;;;;;;5090179;28;20731;-48
2022/08/05 02:51:51;;;;;;;9.00;4.90;;;20.60;99.90;;;;;;5089799;28;20498;-44
2022/08/05 02:54:18;;;;;;;6.53;4.33;;;20.60;99.90;;;;;;5090089;28;20497;-46
2022/08/05 02:56:45;;;;;;;4.53;4.13;;;20.60;99.90;;;;;;5089092;28;20406;-44
2022/08/05 02:59:12;;;;;;;3.73;3.40;;;20.60;99.90;;;;;;5089988;28;21176;-44
2022/08/05 03:01:40;;;;;;;5.03;4.00;;;20.60;99.90;;;;;;5090048;28;20422;-44
2022/08/05 03:04:09;;;;;;;5.83;4.00;;;20.50;99.90;;;;;;5090090;28;20513;-46
2022/08/05 03:06:37;;;;;;;5.10;4.30;;;20.50;99.90;;;;;;5085504;28;20442;-44
2022/08/05 03:09:03;;;;;;;4.90;4.40;;;20.50;99.90;;;;;;5089866;28;20429;-44
2022/08/05 03:11:29;;;;;;;6.37;4.47;;;20.40;99.90;;;;;;5089485;28;20457;-45
2022/08/05 03:13:55;;;;;;;5.30;4.80;;;20.40;99.90;;;;;;5089962;28;20414;-44
2022/08/05 03:16:21;;;;;;;5.60;4.80;;;20.30;99.90;;;;;;5089600;28;20184;-44
2022/08/05 03:18:47;;;;;;;6.40;5.00;;;20.10;99.90;;;;;;5091563;28;20550;-45
2022/08/05 03:21:13;;;;;;;7.20;5.07;;;20.10;99.90;;;;;;5092427;28;21008;-46
2022/08/05 03:23:41;;;;;;;6.33;5.40;;;20.00;99.90;;;;;;5093880;28;20909;-46
2022/08/05 03:26:07;;;;;;;6.20;5.60;;;19.90;99.90;;;;;;5093607;28;20410;-46
2022/08/05 03:28:34;;;;;;;7.30;5.03;;;19.90;99.90;;;;;;5093231;28;20432;-45
2022/08/05 03:31:01;;;;;;;7.73;5.70;;;19.80;99.90;;;;;;5093753;28;20991;-44
2022/08/05 03:33:27;;;;;;;6.37;5.77;;;19.80;99.90;;;;;;5093659;28;20430;-44
2022/08/05 03:35:58;;;;;;;6.33;5.60;;;19.80;99.90;;;;;;5093620;28;20422;-43
2022/08/05 03:38:25;;;;;;;6.47;5.07;;;19.80;99.90;;;;;;5092861;28;20421;-47
2022/08/05 03:40:54;;;;;;;6.77;5.50;;;19.80;99.90;;;;;;5093545;28;20920;-45
2022/08/05 03:43:23;;;;;;;5.87;5.27;;;19.90;99.90;;;;;;5093388;28;20426;-45
2022/08/05 03:45:49;;;;;;;6.70;4.80;;;19.90;99.90;;;;;;5084372;28;20426;-44
2022/08/05 03:48:14;;;;;;;5.70;5.00;;;19.80;99.90;;;;;;5092969;28;20518;-46
2022/08/05 03:50:47;;;;;;;8.13;5.13;;;19.80;99.90;;;;;;5093431;28;20553;-44
2022/08/05 03:53:17;;;;;;;6.40;5.03;;;19.80;99.90;;;;;;5093057;28;20180;-44
2022/08/05 03:55:52;;;;;;;5.67;4.77;;;19.70;99.90;;;;;;5093404;28;20900;-43
2022/08/05 03:58:21;;;;;;;6.03;4.83;;;19.80;99.90;;;;;;5092588;28;20952;-44
2022/08/05 04:00:50;;;;;;;6.67;5.40;;;19.70;99.90;;;;;;5091861;28;20882;-44
2022/08/05 04:03:16;;;;;;;5.60;5.03;;;19.60;99.90;;;;;;5093150;28;20801;-46
2022/08/05 04:05:43;;;;;;;8.43;5.17;;;19.50;99.90;;;;;;5092626;28;20529;-44
2022/08/05 04:08:10;;;;;;;6.60;5.40;;;19.60;99.90;;;;;;5092593;28;20804;-45
2022/08/05 04:10:36;;;;;;;5.03;4.53;;;19.60;99.90;;;;;;5092922;28;20454;-44
2022/08/05 04:13:02;;;;;;;7.67;5.63;;;19.60;99.90;;;;;;5092792;28;20418;-46
2022/08/05 04:15:29;;;;;;;6.50;5.43;;;19.40;99.90;;;;;;5092879;28;20426;-45
2022/08/05 04:17:55;;;;;;;7.80;5.07;;;19.40;99.90;;;;;;5092181;28;20425;-45
2022/08/05 04:20:22;;;;;;;7.57;5.07;;;19.40;99.90;;;;;;5091827;28;20423;-48
2022/08/05 04:22:49;;;;;;;6.57;5.97;;;19.40;99.90;;;;;;5092821;28;20422;-46
2022/08/05 04:25:15;;;;;;;6.00;5.30;;;19.40;99.90;;;;;;5092785;28;20917;-48
2022/08/05 04:27:41;;;;;;;6.50;5.80;;;19.30;99.90;;;;;;5091941;28;20530;-46
2022/08/05 04:30:08;;;;;;;6.30;5.70;;;19.30;99.90;;;;;;5092109;28;20522;-46
2022/08/05 04:32:33;;;;;;;6.03;5.23;;;19.30;99.90;;;;;;5092444;28;20437;-43
2022/08/05 04:34:59;;;;;;;10.40;6.17;;;19.30;99.90;;;;;;5092508;28;20913;-44
2022/08/05 04:37:25;;;;;;;8.67;5.60;;;19.30;99.90;;;;;;5091766;28;20188;-47
2022/08/05 04:39:51;;;;;;;9.00;5.90;;;19.30;99.90;;;;;;5092794;28;20186;-46
2022/08/05 04:42:17;;;;;;;6.17;5.67;;;19.40;99.90;;;;;;5092499;28;20803;-47
2022/08/05 04:44:42;;;;;;;6.57;5.30;;;19.40;99.90;;;;;;5092609;28;20176;-44
2022/08/05 04:47:08;;;;;;;7.53;6.33;;;19.50;99.90;;;;;;5091463;28;20266;-46
2022/08/05 04:49:34;;;;;;;6.80;6.10;;;19.50;99.90;;;;;;5089816;28;20240;-45
2022/08/05 04:51:59;;;;;;;8.20;6.50;;;19.50;99.90;;;;;;5082809;28;20216;-48
2022/08/05 04:54:28;;;;;;;6.30;5.70;;;19.60;99.90;;;;;;5087292;28;20191;-46
2022/08/05 04:56:54;;;;;;;5.87;5.33;;;19.50;99.90;;;;;;5090291;28;20185;-47
2022/08/05 04:59:21;;;;;;;8.97;6.67;;;19.60;99.90;;;;;;5091995;28;20774;-44
2022/08/05 05:01:48;;;;;;;7.73;7.00;;;19.60;99.90;;;;;;5091890;28;20452;-46
2022/08/05 05:04:14;;;;;;;9.53;8.63;;;19.60;99.90;;;;;;5091723;28;21003;-47
2022/08/05 05:06:40;;;;;;;9.10;8.20;;;19.50;99.90;;;;;;5091311;28;20945;-49
2022/08/05 05:09:06;;;;;;;11.13;8.93;;;19.50;99.90;;;;;;5091792;28;20459;-49
2022/08/05 05:11:31;;;;;;;11.70;8.77;;;19.60;99.90;;;;;;5091732;28;20590;-44
2022/08/05 05:13:57;;;;;;;9.83;8.83;;;19.50;99.90;;;;;;5089267;28;20184;-45
2022/08/05 05:16:23;;;;;;;10.87;9.07;;;19.40;99.90;;;;;;5085147;28;20682;-49
2022/08/05 05:18:48;;;;;;;13.40;8.90;;;19.30;99.90;;;;;;5088294;28;20181;-46
2022/08/05 05:21:14;;;;;;;13.67;9.60;;;19.30;99.90;;;;;;5091381;28;20229;-46
2022/08/05 05:23:40;;;;;;;15.00;11.70;;;19.30;99.90;;;;;;5091662;28;20197;-44
2022/08/05 05:26:06;;;;;;;11.27;10.27;;;19.40;99.90;;;;;;5091259;28;20437;-44
2022/08/05 05:28:32;;;;;;;11.87;10.67;;;19.40;99.90;;;;;;5090832;28;20195;-48
2022/08/05 05:30:58;;;;;;;14.07;12.70;;;19.40;99.90;;;;;;5091018;28;20224;-46
2022/08/05 05:33:24;;;;;;;14.27;12.87;;;19.30;99.90;;;;;;5091541;28;20535;-46
2022/08/05 05:35:50;;;;;;;13.63;12.03;;;19.30;99.90;;;;;;5091209;28;20642;-47
2022/08/05 05:38:16;;;;;;;14.63;13.10;;;19.30;99.90;;;;;;5090780;28;20731;-44
2022/08/05 05:40:43;;;;;;;12.97;11.67;;;19.40;99.90;;;;;;5079719;28;20212;-44
2022/08/05 05:43:08;;;;;;;15.10;13.60;;;19.40;99.90;;;;;;5090877;28;20411;-46
2022/08/05 05:45:34;;;;;;;14.50;12.70;;;19.40;99.90;;;;;;5090629;28;20440;-48
2022/08/05 05:48:01;;;;;;;15.30;13.00;;;19.40;99.90;;;;;;5090471;28;20188;-44
2022/08/05 05:50:26;;;;;;;15.13;13.63;;;19.30;99.90;;;;;;5091117;28;20219;-49
2022/08/05 05:52:53;;;;;;;15.80;14.20;;;19.40;99.90;;;;;;5090947;28;20411;-46
2022/08/05 05:55:18;;;;;;;14.40;12.57;;;19.30;99.90;;;;;;5083554;28;20578;-44
2022/08/05 05:57:46;;;;;;;13.37;12.10;;;19.30;99.90;;;;;;5089562;28;20425;-45
2022/08/05 06:00:15;;;;;;;13.67;12.47;;;19.30;99.90;;;;;;5087667;28;20259;-45
2022/08/05 06:02:41;;;;;;;14.47;11.47;;;19.40;99.90;;;;;;5090474;28;20433;-46
2022/08/05 06:05:09;;;;;;;12.93;11.63;;;19.30;99.90;;;;;;5086321;28;20789;-44
2022/08/05 06:07:34;;;;;;;10.80;9.73;;;19.10;99.90;;;;;;5085156;28;20541;-47
2022/08/05 06:10:00;;;;;;;11.27;10.17;;;19.10;99.90;;;;;;5087331;28;20936;-46
2022/08/05 06:12:26;;;;;;;11.13;10.03;;;19.10;99.90;;;;;;5086554;28;20176;-45
2022/08/05 06:14:51;;;;;;;11.30;10.30;;;19.10;99.90;;;;;;5089603;28;20179;-46
2022/08/05 06:17:17;;;;;;;10.97;9.97;;;19.10;99.90;;;;;;5082673;28;20177;-45
2022/08/05 06:19:43;;;;;;;10.03;9.03;;;19.20;99.90;;;;;;5089237;28;20816;-45
2022/08/05 06:22:09;;;;;;;7.57;6.87;;;19.20;99.90;;;;;;5090497;28;20605;-45
2022/08/05 06:24:40;;;;;;;8.70;7.87;;;19.10;99.90;;;;;;5090202;28;20189;-45
2022/08/05 06:27:05;;;;;;;8.50;7.80;;;19.10;99.90;;;;;;5089717;28;20192;-44
2022/08/05 06:29:31;;;;;;;10.70;9.37;;;19.10;99.90;;;;;;5090004;28;20452;-44
2022/08/05 06:31:57;;;;;;;11.13;10.03;;;19.10;99.90;;;;;;5088549;28;20312;-46
2022/08/05 06:34:22;;;;;;;9.90;8.90;;;19.10;99.90;;;;;;5089363;28;20211;-45
2022/08/05 06:36:48;;;;;;;10.93;9.73;;;19.10;99.90;;;;;;5088814;28;20180;-44
2022/08/05 06:39:14;;;;;;;12.80;10.53;;;19.20;99.90;;;;;;5090171;28;20180;-46
2022/08/05 06:41:39;;;;;;;11.53;10.43;;;19.10;99.90;;;;;;5090267;28;20192;-44
2022/08/05 06:44:05;;;;;;;11.07;10.00;;;19.20;99.90;;;;;;5085151;28;20260;-45
2022/08/05 06:46:31;;;;;;;12.20;11.00;;;19.20;99.90;;;;;;5085739;28;20192;-45
2022/08/05 06:48:57;;;;;;;13.17;11.87;;;19.20;99.90;;;;;;5089564;28;20188;-44
2022/08/05 06:51:23;;;;;;;15.43;12.67;;;19.20;99.90;;;;;;5089886;28;20232;-44
2022/08/05 06:53:49;;;;;;;15.30;13.80;;;19.10;99.90;;;;;;5089617;28;20510;-46
2022/08/05 06:56:15;;;;;;;15.10;13.60;;;19.10;99.90;;;;;;5089699;28;20502;-45
2022/08/05 06:58:41;;;;;;;15.93;14.33;;;19.20;99.90;;;;;;5089233;28;20256;-47
2022/08/05 07:01:06;;;;;;;17.80;14.67;;;19.20;99.90;;;;;;5089999;28;20197;-46
2022/08/05 07:03:33;;;;;;;17.80;14.23;;;19.20;99.90;;;;;;5089777;28;20192;-48
2022/08/05 07:06:03;;;;;;;15.97;14.37;;;19.20;99.90;;;;;;5089753;28;20224;-48
2022/08/05 07:08:29;;;;;;;16.77;14.93;;;19.10;99.90;;;;;;5089300;28;20502;-46
2022/08/05 07:10:55;;;;;;;18.33;16.40;;;19.00;99.90;;;;;;5089658;28;20548;-46
2022/08/05 07:18:53;;;;;;;16.70;13.97;;;19.00;99.90;;;;;;5087088;28;20430;-46
2022/08/05 07:21:18;;;;;;;18.27;16.33;;;19.00;99.90;;;;;;5089252;28;20910;-44
2022/08/05 07:23:44;;;;;;;19.70;15.27;;;18.90;99.90;;;;;;5089481;28;20418;-45
2022/08/05 07:26:10;;;;;;;17.30;14.90;;;19.00;99.90;;;;;;5089682;28;20626;-45
2022/08/05 07:28:36;;;;;;;17.27;15.57;;;18.90;99.90;;;;;;5089152;28;20192;-45
2022/08/05 07:31:01;;;;;;;15.00;13.47;;;18.90;99.90;;;;;;5089611;28;20245;-50
2022/08/05 07:33:27;;;;;;;16.03;14.43;;;18.80;99.90;;;;;;5089751;28;20498;-45
2022/08/05 07:35:53;;;;;;;15.90;14.50;;;18.80;99.90;;;;;;5089683;28;20185;-44
2022/08/05 07:38:19;;;;;;;15.03;13.23;;;18.90;99.90;;;;;;5088721;28;20191;-45
2022/08/05 07:40:44;;;;;;;19.03;15.37;;;18.80;99.90;;;;;;5089864;28;20199;-46
2022/08/05 07:43:12;;;;;;;15.27;13.50;;;18.70;99.90;;;;;;5089354;28;20196;-47
2022/08/05 07:45:40;;;;;;;20.30;14.60;;;18.70;99.90;;;;;;5080415;28;20531;-45
2022/08/05 07:48:06;;;;;;;16.20;14.40;;;18.60;99.90;;;;;;5088729;28;20423;-45
2022/08/05 07:50:32;;;;;;;16.80;14.90;;;18.50;99.90;;;;;;5089152;28;20461;-47
2022/08/05 07:52:57;;;;;;;15.00;13.60;;;18.50;99.90;;;;;;5089557;28;20180;-45
2022/08/05 07:55:24;;;;;;;15.03;13.63;;;18.40;99.90;;;;;;5088957;28;20279;-46
2022/08/05 07:57:50;;;;;;;15.80;13.73;;;18.40;99.90;;;;;;5088898;28;20199;-47
2022/08/05 08:00:16;;;;;;;12.00;10.73;;;18.50;99.90;;;;;;5089211;28;20422;-44
2022/08/05 08:02:43;;;;;;;13.23;11.93;;;18.50;99.90;;;;;;5089446;28;20168;-45
2022/08/05 08:05:08;;;;;;;13.13;11.83;;;18.50;99.90;;;;;;5092043;28;20469;-45
2022/08/05 08:07:34;;;;;;;12.33;11.00;;;18.50;99.90;;;;;;5092523;28;20772;-45
2022/08/05 08:10:00;;;;;;;11.40;10.30;;;18.50;99.90;;;;;;5093037;28;20220;-44
2022/08/05 08:12:26;;;;;;;10.40;9.40;;;18.50;99.90;;;;;;5093209;28;20700;-45
2022/08/05 08:14:52;;;;;;;9.93;8.80;;;18.50;99.90;;;;;;5093029;28;20272;-44
2022/08/05 08:17:18;;;;;;;9.60;7.87;;;18.50;99.90;;;;;;5092294;28;20267;-45
2022/08/05 08:19:44;;;;;;;8.90;8.00;;;18.50;99.90;;;;;;5090423;28;20501;-45
2022/08/05 08:22:10;;;;;;;9.87;8.90;;;18.50;99.90;;;;;;5092893;28;20196;-46
2022/08/05 08:24:36;;;;;;;12.57;8.80;;;18.50;99.90;;;;;;5092859;28;20961;-45
2022/08/05 08:27:04;;;;;;;9.60;8.70;;;18.50;99.90;;;;;;5091955;28;20505;-46
2022/08/05 08:29:30;;;;;;;9.73;8.53;;;18.50;99.90;;;;;;5092879;28;20842;-44
2022/08/05 08:31:55;;;;;;;8.70;8.00;;;18.50;99.90;;;;;;5092569;28;20470;-46
2022/08/05 08:34:24;;;;;;;8.93;7.10;;;18.50;99.90;;;;;;5092275;28;20188;-47
2022/08/05 08:36:50;;;;;;;7.90;7.20;;;18.50;99.90;;;;;;5092023;28;20426;-44
2022/08/05 08:39:17;;;;;;;8.60;7.80;;;18.50;99.90;;;;;;5092359;28;20422;-45
2022/08/05 08:41:46;;;;;;;10.77;7.67;;;18.40;99.90;;;;;;5092393;28;20429;-45
2022/08/05 08:44:14;;;;;;;8.30;7.00;;;18.40;99.90;;;;;;5086656;28;20549;-45
2022/08/05 08:46:42;;;;;;;9.30;7.50;;;18.40;99.90;;;;;;5088867;28;20429;-45
2022/08/05 08:49:08;;;;;;;11.27;6.80;;;18.30;99.90;;;;;;5091926;28;20437;-48
2022/08/05 08:51:37;;;;;;;8.07;7.23;;;18.30;99.90;;;;;;5092354;28;20802;-47
2022/08/05 08:54:03;;;;;;;8.63;6.60;;;18.30;99.90;;;;;;5092223;28;20488;-46
2022/08/05 08:56:31;;;;;;;6.47;5.80;;;18.30;99.90;;;;;;5092245;28;20462;-45
2022/08/05 08:58:58;;;;;;;5.00;4.60;;;18.30;99.90;;;;;;5092049;28;20454;-49
2022/08/05 09:01:24;;;;;;;5.60;5.10;;;18.20;99.90;;;;;;5091933;28;20454;-45
2022/08/05 09:03:52;;;;;;;6.33;4.30;;;18.20;99.90;;;;;;5092061;28;20506;-46
2022/08/05 09:06:18;;;;;;;6.80;5.33;;;18.30;99.90;;;;;;5091664;28;20450;-44
2022/08/05 09:08:44;;;;;;;6.73;4.40;;;18.30;99.90;;;;;;5091410;28;20642;-45
2022/08/05 09:11:12;;;;;;;6.00;4.70;;;18.20;99.90;;;;;;5091697;28;20987;-46
2022/08/05 09:13:38;;;;;;;5.00;4.50;;;18.20;99.90;;;;;;5091781;28;20490;-49
2022/08/05 09:16:07;;;;;;;6.00;5.20;;;18.20;99.90;;;;;;5091544;28;20415;-46
2022/08/05 09:18:35;;;;;;;5.90;5.30;;;18.20;99.90;;;;;;5091295;28;20423;-45
2022/08/05 09:21:01;;;;;;;5.37;4.87;;;18.30;99.90;;;;;;5090305;28;20426;-44
2022/08/05 09:23:27;;;;;;;7.73;6.33;;;18.30;99.90;;;;;;5091583;28;20779;-46
2022/08/05 09:26:09;;;;;;;6.13;5.27;;;18.30;99.90;;;;;;5091422;28;20425;-46
2022/08/05 09:28:37;;;;;;;7.77;5.63;;;18.30;99.90;;;;;;5089216;28;20426;-47
2022/08/05 09:31:04;;;;;;;6.63;5.93;;;18.40;99.90;;;;;;5091550;28;20466;-45
2022/08/05 09:33:31;;;;;;;6.70;5.50;;;18.40;99.90;;;;;;5091379;28;20457;-45
2022/08/05 09:36:04;;;;;;;8.47;5.67;;;18.50;99.90;;;;;;5091538;28;20852;-46
2022/08/05 09:38:31;;;;;;;8.93;6.40;;;18.60;99.90;;;;;;5090533;28;20457;-44
2022/08/05 09:41:06;;;;;;;7.03;5.33;;;18.60;99.90;;;;;;5091142;28;20971;-45
2022/08/05 09:43:34;;;;;;;5.90;5.10;;;18.60;99.90;;;;;;5091033;28;20417;-45
2022/08/05 09:46:01;;;;;;;9.27;5.40;;;18.60;99.90;;;;;;5091209;28;20422;-45
2022/08/05 09:48:29;;;;;;;9.33;5.90;;;18.60;99.90;;;;;;5090552;28;20498;-48
2022/08/05 09:51:00;;;;;;;5.63;5.17;;;18.60;99.90;;;;;;5090951;28;20484;-47
2022/08/05 09:53:28;;;;;;;7.07;5.03;;;18.60;99.90;;;;;;5090831;28;20494;-47
2022/08/05 09:55:58;;;;;;;6.43;5.20;;;18.60;99.90;;;;;;5090852;28;20427;-48
2022/08/05 09:58:26;;;;;;;6.50;5.50;;;18.50;99.90;;;;;;5090279;28;20430;-47
2022/08/05 10:00:56;;;;;;;7.77;4.97;;;18.60;99.90;;;;;;5090868;28;20488;-45
2022/08/05 10:03:22;;;;;;;5.47;4.90;;;18.50;99.90;;;;;;5091011;28;20421;-44
2022/08/05 10:06:04;;;;;;;8.13;4.93;;;18.40;99.90;;;;;;5090654;28;20495;-47
2022/08/05 10:08:29;;;;;;;6.00;4.97;;;18.40;99.90;;;;;;5090044;28;21078;-46
2022/08/05 10:10:55;;;;;;;5.23;4.40;;;18.40;99.90;;;;;;5090771;28;20499;-44
2022/08/05 10:13:36;;;;;;;6.53;4.43;;;18.50;99.90;;;;;;5090479;28;20640;-48
2022/08/05 10:16:05;;;;;;;5.67;4.77;;;18.50;99.90;;;;;;5090542;28;20447;-48
2022/08/05 10:18:31;;;;;;;8.83;5.50;;;18.40;99.90;;;;;;5089687;28;20487;-45
2022/08/05 10:21:00;;;;;;;5.07;4.43;;;18.40;99.90;;;;;;5089092;28;20483;-49
2022/08/05 10:23:32;;;;;;;5.33;4.47;;;18.40;99.90;;;;;;5082900;28;20508;-47
2022/08/05 10:26:07;;;;;;;7.27;4.53;;;18.40;99.90;;;;;;5088959;28;20435;-47
2022/08/05 10:28:34;;;;;;;6.17;4.70;;;18.50;99.90;;;;;;5088406;28;20778;-46
2022/08/05 10:31:00;;;;;;;7.73;5.47;;;18.50;99.90;;;;;;5088938;28;20470;-46
2022/08/05 10:33:30;;;;;;;6.13;4.80;;;18.50;99.90;;;;;;5090100;28;20426;-45
2022/08/05 10:35:57;;;;;;;7.63;5.23;;;18.50;99.90;;;;;;5090278;28;20469;-46
2022/08/05 10:38:25;;;;;;;6.03;5.23;;;18.50;99.90;;;;;;5089598;28;20932;-48
2022/08/05 10:40:59;;;;;;;7.77;5.80;;;18.50;99.90;;;;;;5090300;28;20479;-47
2022/08/05 10:43:31;;;;;;;5.60;5.00;;;18.60;99.90;;;;;;5089908;28;20777;-47
2022/08/05 10:46:00;;;;;;;5.23;3.80;;;18.60;99.90;;;;;;5081432;28;20441;-46
2022/08/05 10:48:43;;;;;;;6.50;5.40;;;18.70;99.90;;;;;;5089418;28;20427;-47
2022/08/05 10:51:11;;;;;;;8.80;5.23;;;18.90;99.90;;;;;;5090167;28;20974;-46
2022/08/05 10:53:52;;;;;;;7.07;4.57;;;18.90;99.90;;;;;;5089971;28;20426;-47
2022/08/05 10:56:24;;;;;;;5.30;4.80;;;19.10;99.90;;;;;;5090054;28;20426;-44
2022/08/05 10:58:53;;;;;;;6.17;5.27;;;19.10;99.90;;;;;;5089407;28;20489;-45
2022/08/05 11:01:36;;;;;;;4.70;4.23;;;19.30;99.90;;;;;;5089977;28;20437;-46
2022/08/05 11:04:11;;;;;;;4.80;4.30;;;19.40;99.90;;;;;;5090194;28;20789;-45
2022/08/05 11:06:56;;;;;;;4.13;3.57;;;19.70;99.90;;;;;;5085551;28;20484;-46
2022/08/05 11:09:24;;;;;;;4.30;3.47;;;19.80;99.90;;;;;;5090004;28;20446;-46
2022/08/05 11:11:51;;;;;;;7.67;4.07;;;19.90;99.90;;;;;;5089228;28;20473;-48
2022/08/05 11:14:24;;;;;;;4.37;3.37;;;20.00;99.90;;;;;;5088357;28;20430;-49
2022/08/05 11:17:28;;;;;;;4.20;3.70;;;20.10;99.90;;;;;;5088905;28;20454;-46
2022/08/05 11:19:56;;;;;;;6.67;3.27;;;20.10;99.90;;;;;;5088224;28;20500;-48
2022/08/05 11:22:50;;;;;;;4.17;3.63;;;20.20;99.90;;;;;;5089239;28;20431;-47
2022/08/05 11:25:37;;;;;;;3.53;2.83;;;20.40;99.90;;;;;;5089114;28;20446;-47
2022/08/05 11:28:11;;;;;;;4.00;2.80;;;20.60;99.90;;;;;;5088498;28;20414;-47
2022/08/05 11:30:56;;;;;;;5.10;3.07;;;20.80;99.90;;;;;;5085524;28;20523;-47
2022/08/05 11:33:37;;;;;;;6.77;3.50;;;21.00;99.90;;;;;;5089148;28;20769;-47
2022/08/05 11:36:04;;;;;;;5.00;2.87;;;21.10;99.90;;;;;;5089629;28;20703;-46
2022/08/05 11:38:53;;;;;;;3.07;2.77;;;21.20;99.90;;;;;;5088895;28;20419;-47
2022/08/05 11:41:30;;;;;;;3.60;2.90;;;21.20;99.90;;;;;;5091959;28;20422;-47
2022/08/05 11:44:17;;;;;;;3.43;3.00;;;21.20;99.90;;;;;;5092601;28;21184;-46
2022/08/05 11:46:48;;;;;;;5.20;2.80;;;21.20;99.90;;;;;;5093172;28;20426;-47
2022/08/05 11:49:16;;;;;;;4.37;2.60;;;21.20;99.90;;;;;;5093218;28;20437;-49
2022/08/05 11:51:43;;;;;;;3.33;3.03;;;21.20;99.90;;;;;;5093449;28;20530;-45
2022/08/05 11:54:14;;;;;;;4.70;3.00;;;21.20;99.90;;;;;;5093342;28;20415;-46
2022/08/05 11:56:47;;;;;;;3.83;3.03;;;21.30;99.90;;;;;;5092604;28;20419;-48
2022/08/05 11:59:25;;;;;;;3.47;3.20;;;21.30;99.90;;;;;;5093217;28;20414;-45
2022/08/05 12:01:55;;;;;;;4.37;3.57;;;21.40;99.90;;;;;;5093233;28;20525;-45
2022/08/05 12:04:21;;;;;;;4.40;3.77;;;21.50;99.90;;;;;;5093102;28;20440;-47
2022/08/05 12:06:47;;;;;;;3.87;3.47;;;21.60;99.90;;;;;;5092284;28;20449;-46
2022/08/05 12:09:18;;;;;;;3.90;3.60;;;21.70;99.90;;;;;;5092971;28;20415;-45
2022/08/05 12:11:45;;;;;;;4.43;3.20;;;21.80;99.90;;;;;;5092932;28;20501;-47
2022/08/05 12:14:10;;;;;;;3.67;3.37;;;21.90;99.90;;;;;;5093106;28;20425;-46
2022/08/05 12:16:41;;;;;;;5.70;4.30;;;22.00;99.90;;;;;;5092423;28;20508;-47
2022/08/05 12:19:10;;;;;;;5.27;3.90;;;22.00;99.90;;;;;;5090134;28;20193;-44
2022/08/05 12:21:45;;;;;;;5.00;3.40;;;22.10;99.90;;;;;;5092450;28;20422;-45
2022/08/05 12:24:13;;;;;;;4.63;4.13;;;22.10;99.90;;;;;;5092883;28;20441;-46
2022/08/05 12:26:42;;;;;;;4.67;4.00;;;22.20;99.90;;;;;;5092036;28;20434;-47
2022/08/05 12:29:10;;;;;;;3.90;3.60;;;22.10;99.90;;;;;;5092721;28;20437;-46
2022/08/05 12:31:36;;;;;;;4.83;4.40;;;22.20;99.90;;;;;;5092311;28;20493;-45
2022/08/05 12:34:05;;;;;;;4.90;4.13;;;22.20;99.90;;;;;;5092214;28;20419;-46
2022/08/05 12:36:31;;;;;;;4.70;4.20;;;22.30;99.90;;;;;;5092456;28;20414;-46
2022/08/05 12:38:58;;;;;;;4.50;4.10;;;22.20;99.90;;;;;;5091072;28;20418;-45
2022/08/05 12:41:30;;;;;;;6.03;4.30;;;22.20;99.90;;;;;;5092531;28;20414;-47
2022/08/05 12:43:59;;;;;;;4.63;4.23;;;22.00;99.90;;;;;;5092321;28;20422;-46
2022/08/05 12:46:26;;;;;;;4.20;3.80;;;22.00;99.90;;;;;;5091950;28;20406;-46
2022/08/05 12:49:00;;;;;;;5.10;4.70;;;21.90;99.90;;;;;;5091445;28;20422;-45
2022/08/05 12:51:28;;;;;;;4.80;4.30;;;22.00;99.90;;;;;;5092072;28;20454;-51
2022/08/05 12:54:02;;;;;;;5.20;4.70;;;22.10;99.90;;;;;;5091925;28;20784;-47
2022/08/05 12:56:29;;;;;;;4.80;4.40;;;22.10;99.90;;;;;;5092161;28;20433;-51